Time;durP1;ratioP1;P1;durP2;ratioP2;P2;SDS_P1;SDS_P2;PMS_P1;PMS_P2;Temp;Humidity;BMP_temperature;BMP_pressure;BME280_temperature;BME280_humidity;BME280_pressure;Samples;Min_cycle;Max_cycle;Signal;HPM_P1;HPM_P2
2022/11/06 00:02:12;;;;;;;;;;;;;;;6.22;69.36;101179.38;5032357;28;19920;-30
2022/11/06 00:04:37;;;;;;;;;;;;;;;6.19;69.88;101180.19;5032067;28;19917;-30
2022/11/06 00:07:03;;;;;;;;;;;;;;;6.16;70.06;101173.19;5032464;28;19913;-30
2022/11/06 00:09:28;;;;;;;;;;;;;;;6.16;69.64;101180.13;5032445;28;19917;-30
2022/11/06 00:11:53;;;;;;;;;;;;;;;6.15;69.65;101174.03;5031515;28;19920;-30
2022/11/06 00:14:18;;;;;;;;;;;;;;;6.15;70.03;101170.53;5031769;28;19913;-31
2022/11/06 00:16:44;;;;;;;;;;;;;;;6.11;70.03;101168.72;5032927;28;20384;-30
2022/11/06 00:19:10;;;;;;;;;;;;;;;6.10;70.12;101166.97;5031818;28;19916;-30
2022/11/06 00:21:37;;;;;;;;;;;;;;;6.09;69.90;101160.81;5032699;28;20027;-30
2022/11/06 00:24:03;;;;;;;;;;;;;;;6.08;69.87;101151.22;5031551;28;19913;-30
2022/11/06 00:26:28;;;;;;;;;;;;;;;6.06;70.19;101154.66;5046708;28;20436;-30
2022/11/06 00:28:54;;;;;;;;;;;;;;;6.02;70.23;101162.44;5032136;28;20290;-30
2022/11/06 00:31:20;;;;;;;;;;;;;;;6.00;70.36;101158.88;5036947;28;19985;-30
2022/11/06 00:33:45;;;;;;;;;;;;;;;5.99;70.48;101162.38;5030910;28;20180;-30
2022/11/06 00:36:11;;;;;;;;;;;;;;;5.98;70.14;101160.63;5026233;28;20380;-30
2022/11/06 00:38:37;;;;;;;;;;;;;;;6.00;70.36;101158.03;5031085;28;20043;-30
2022/11/06 00:41:03;;;;;;;;;;;;;;;5.99;70.03;101164.09;5030770;28;20472;-30
2022/11/06 00:43:28;;;;;;;;;;;;;;;5.97;70.48;101166.69;5032765;28;19917;-30
2022/11/06 00:45:53;;;;;;;;;;;;;;;5.96;70.49;101161.41;5031663;28;19967;-30
2022/11/06 00:48:18;;;;;;;;;;;;;;;5.96;70.30;101162.31;5029244;28;19925;-31
2022/11/06 00:50:44;;;;;;;;;;;;;;;5.96;70.27;101156.19;5028132;28;20281;-30
2022/11/06 00:53:09;;;;;;;;;;;;;;;5.94;70.50;101160.53;5030183;28;19939;-30
2022/11/06 00:55:34;;;;;;;;;;;;;;;5.93;70.08;101161.38;5032122;28;19913;-31
2022/11/06 00:57:59;;;;;;;;;;;;;;;5.91;70.48;101163.97;5021655;28;19955;-30
2022/11/06 01:00:24;;;;;;;;;;;;;;;5.89;70.46;101149.97;5042368;28;19919;-30
2022/11/06 01:02:50;;;;;;;;;;;;;;;5.88;70.54;101153.44;5032632;28;20104;-30
2022/11/06 01:05:15;;;;;;;;;;;;;;;5.87;70.62;101146.44;5032488;28;19913;-30
2022/11/06 01:07:40;;;;;;;;;;;;;;;5.89;70.88;101142.09;5030758;28;19921;-30
2022/11/06 01:10:06;;;;;;;;;;;;;;;5.87;70.09;101135.97;5023883;28;19949;-30
2022/11/06 01:12:31;;;;;;;;;;;;;;;5.87;70.67;101130.75;5032650;28;19939;-30
2022/11/06 01:14:57;;;;;;;;;;;;;;;5.87;70.58;101136.84;5032210;28;20285;-30
2022/11/06 01:17:22;;;;;;;;;;;;;;;5.87;70.71;101129.00;5029108;28;19914;-30
2022/11/06 01:19:47;;;;;;;;;;;;;;;5.89;70.12;101134.25;5026976;28;20003;-30
2022/11/06 01:22:12;;;;;;;;;;;;;;;5.88;70.33;101132.50;5027896;28;20310;-30
2022/11/06 01:24:38;;;;;;;;;;;;;;;5.89;70.56;101126.41;5027908;28;19921;-30
2022/11/06 01:27:03;;;;;;;;;;;;;;;5.90;70.00;101120.28;5028413;28;19945;-30
2022/11/06 01:29:28;;;;;;;;;;;;;;;5.89;70.06;101124.66;5029754;28;20369;-30
2022/11/06 01:31:53;;;;;;;;;;;;;;;5.90;70.35;101125.53;5026894;28;20431;-31
2022/11/06 01:34:19;;;;;;;;;;;;;;;5.89;70.07;101123.78;5030984;28;20382;-31
2022/11/06 01:36:45;;;;;;;;;;;;;;;5.90;70.47;101120.28;5031148;28;19912;-30
2022/11/06 01:39:11;;;;;;;;;;;;;;;5.88;70.46;101115.06;5032636;28;19920;-30
2022/11/06 01:41:37;;;;;;;;;;;;;;;5.90;70.28;101115.06;5031471;28;20024;-30
2022/11/06 01:44:04;;;;;;;;;;;;;;;5.89;70.01;101108.06;5030991;28;19913;-30
2022/11/06 01:46:31;;;;;;;;;;;;;;;5.88;70.20;101112.44;5031315;28;19922;-30
2022/11/06 01:48:57;;;;;;;;;;;;;;;5.88;70.31;101106.31;5030186;28;20441;-30
2022/11/06 01:51:23;;;;;;;;;;;;;;;5.87;70.14;101101.94;5029784;28;19978;-30
2022/11/06 01:53:49;;;;;;;;;;;;;;;5.87;70.33;101101.94;5030894;28;19912;-30
2022/11/06 01:56:14;;;;;;;;;;;;;;;5.87;70.09;101094.09;5032131;28;20179;-30
2022/11/06 01:58:40;;;;;;;;;;;;;;;5.86;70.00;101087.97;5029116;28;20383;-30
2022/11/06 02:01:05;;;;;;;;;;;;;;;5.85;69.68;101094.06;5029960;28;19912;-30
2022/11/06 02:03:31;;;;;;;;;;;;;;;5.84;70.09;101094.03;5030548;28;19923;-30
2022/11/06 02:05:56;;;;;;;;;;;;;;;5.84;70.06;101091.41;5025607;28;19920;-30
2022/11/06 02:08:21;;;;;;;;;;;;;;;5.80;70.02;101081.75;5022778;28;19917;-30
2022/11/06 02:10:46;;;;;;;;;;;;;;;5.81;70.08;101080.88;5029982;28;19916;-30
2022/11/06 02:13:17;;;;;;;;;;;;;;;5.81;69.83;101084.41;5027661;28;20374;-30
2022/11/06 02:15:42;;;;;;;;;;;;;;;5.78;69.93;101074.72;5029958;28;19935;-30
2022/11/06 02:18:22;;;;;;;;;;;;;;;5.77;70.11;101072.97;5030094;28;20354;-31
2022/11/06 02:20:47;;;;;;;;;;;;;;;5.76;70.53;101063.38;5024958;28;19983;-30
2022/11/06 02:23:19;;;;;;;;;;;;;;;5.75;70.59;101068.56;5030866;28;20366;-30
2022/11/06 02:25:50;;;;;;;;;;;;;;;5.72;70.64;101063.28;5030791;28;19913;-30
2022/11/06 02:28:18;;;;;;;;;;;;;;;5.71;71.19;101065.03;5028307;28;19917;-30
2022/11/06 02:30:43;;;;;;;;;;;;;;;5.72;71.02;101072.03;5028212;28;19919;-30
2022/11/06 02:33:10;;;;;;;;;;;;;;;5.70;71.32;101076.34;5029036;28;19917;-31
2022/11/06 02:35:50;;;;;;;;;;;;;;;5.69;70.83;101079.81;5030078;28;19913;-30
2022/11/06 02:38:16;;;;;;;;;;;;;;;5.69;70.85;101084.16;5031115;28;19919;-30
2022/11/06 02:40:42;;;;;;;;;;;;;;;5.67;70.99;101089.34;5029919;28;19916;-31
2022/11/06 02:43:08;;;;;;;;;;;;;;;5.67;71.02;101091.97;5029239;28;20326;-30
2022/11/06 02:45:41;;;;;;;;;;;;;;;5.67;71.30;101086.75;5030474;28;19913;-30
2022/11/06 02:48:07;;;;;;;;;;;;;;;5.67;71.37;101086.75;5031223;28;20425;-31
2022/11/06 02:50:34;;;;;;;;;;;;;;;5.67;71.25;101086.75;5029063;28;19913;-31
2022/11/06 02:53:06;;;;;;;;;;;;;;;5.66;70.97;101079.75;5029109;28;19912;-31
2022/11/06 02:55:36;;;;;;;;;;;;;;;5.65;70.64;101091.97;5024287;28;19923;-31
2022/11/06 02:58:24;;;;;;;;;;;;;;;5.64;71.30;101092.81;5026092;28;19916;-31
2022/11/06 03:00:52;;;;;;;;;;;;;;;5.65;70.80;101094.59;5021346;28;19921;-31
2022/11/06 03:03:24;;;;;;;;;;;;;;;5.65;70.55;101093.69;5030977;28;19913;-31
2022/11/06 03:05:52;;;;;;;;;;;;;;;5.64;71.05;101081.47;5023571;28;20470;-31
2022/11/06 03:08:30;;;;;;;;;;;;;;;5.64;70.93;101078.88;5028508;28;19932;-31
2022/11/06 03:11:08;;;;;;;;;;;;;;;5.63;71.05;101087.53;5029367;28;20453;-31
2022/11/06 03:13:33;;;;;;;;;;;;;;;5.61;70.66;101092.75;5031720;28;19913;-31
2022/11/06 03:16:04;;;;;;;;;;;;;;;5.62;70.59;101083.16;5029937;28;19927;-31
2022/11/06 03:18:32;;;;;;;;;;;;;;;5.61;70.70;101086.66;5027085;28;19913;-32
2022/11/06 03:21:18;;;;;;;;;;;;;;;5.60;70.68;101085.75;5029295;28;19913;-31
2022/11/06 03:23:52;;;;;;;;;;;;;;;5.59;70.49;101084.00;5030634;28;19917;-31
2022/11/06 03:26:22;;;;;;;;;;;;;;;5.60;70.80;101075.28;5028909;28;20357;-31
2022/11/06 03:28:50;;;;;;;;;;;;;;;5.60;70.84;101077.91;5028701;28;19924;-32
2022/11/06 03:31:16;;;;;;;;;;;;;;;5.59;70.78;101083.13;5031541;28;19913;-31
2022/11/06 03:33:48;;;;;;;;;;;;;;;5.58;70.82;101083.97;5042269;28;19917;-31
2022/11/06 03:36:24;;;;;;;;;;;;;;;5.57;70.46;101080.47;5030287;28;20294;-31
2022/11/06 03:38:50;;;;;;;;;;;;;;;5.57;70.67;101077.84;5031375;28;19917;-31
2022/11/06 03:41:23;;;;;;;;;;;;;;;5.56;70.37;101075.19;5024305;28;20367;-31
2022/11/06 03:43:48;;;;;;;;;;;;;;;5.56;70.76;101075.19;5032321;28;19924;-31
2022/11/06 03:46:14;;;;;;;;;;;;;;;5.56;70.59;101077.81;5032348;28;19913;-31
2022/11/06 03:48:41;;;;;;;;;;;;;;;5.56;70.61;101070.84;5026556;28;20457;-31
2022/11/06 03:51:12;;;;;;;;;;;;;;;5.54;70.86;101069.06;5027408;28;19913;-31
2022/11/06 03:53:39;;;;;;;;;;;;;;;5.54;70.51;101069.06;5023692;28;20008;-31
2022/11/06 03:56:09;;;;;;;;;;;;;;;5.51;70.64;101065.53;5032511;28;19913;-31
2022/11/06 03:58:36;;;;;;;;;;;;;;;5.50;70.65;101073.34;5031124;28;19920;-31
2022/11/06 04:01:02;;;;;;;;;;;;;;;5.48;70.02;101060.28;5028391;28;19921;-31
2022/11/06 04:03:47;;;;;;;;;;;;;;;5.49;70.81;101061.13;5033816;28;20443;-31
2022/11/06 04:06:16;;;;;;;;;;;;;;;5.48;70.74;101060.28;5030263;28;19967;-31
2022/11/06 04:14:27;;;;;;;;;;;;;;;5.46;70.32;101056.72;4975868;28;19921;-31
2022/11/06 04:16:53;;;;;;;;;;;;;;;5.44;70.24;101050.56;5026451;28;19924;-31
2022/11/06 04:19:20;;;;;;;;;;;;;;;5.43;70.28;101048.81;5031176;28;19917;-31
2022/11/06 04:21:48;;;;;;;;;;;;;;;5.41;70.57;101050.53;5029912;28;19956;-31
2022/11/06 04:27:12;;;;;;;;;;;;;;;5.38;70.36;101046.13;5031612;28;19939;-31
2022/11/06 04:29:37;;;;;;;;;;;;;;;5.38;70.60;101040.03;5029450;28;20401;-31
2022/11/06 04:32:21;;;;;;;;;;;;;;;5.37;71.07;101035.66;5023557;28;19956;-31
2022/11/06 04:34:55;;;;;;;;;;;;;;;5.37;70.43;101030.41;5025181;28;19913;-31
2022/11/06 04:37:24;;;;;;;;;;;;;;;5.36;70.49;101036.47;5032919;28;19913;-31
2022/11/06 04:39:53;;;;;;;;;;;;;;;5.34;70.60;101041.69;5033853;28;19908;-31
2022/11/06 04:42:18;;;;;;;;;;;;;;;5.33;70.93;101039.06;5030896;28;20390;-31
2022/11/06 04:44:47;;;;;;;;;;;;;;;5.32;70.88;101043.41;5029085;28;19959;-31
2022/11/06 04:47:14;;;;;;;;;;;;;;;5.31;70.77;101043.38;5019144;28;20340;-31
2022/11/06 04:49:39;;;;;;;;;;;;;;;5.30;70.52;101045.09;5029887;28;19963;-31
2022/11/06 04:52:06;;;;;;;;;;;;;;;5.30;70.14;101046.84;5038655;28;19917;-31
2022/11/06 04:54:31;;;;;;;;;;;;;;;5.29;70.63;101037.22;5025098;28;20358;-31
2022/11/06 04:56:59;;;;;;;;;;;;;;;5.29;70.58;101034.59;5026026;28;19988;-31
2022/11/06 04:59:25;;;;;;;;;;;;;;;5.27;70.89;101037.22;5030588;28;19917;-31
2022/11/06 05:01:50;;;;;;;;;;;;;;;5.26;70.67;101033.72;5029126;28;19963;-31
2022/11/06 05:04:15;;;;;;;;;;;;;;;5.25;70.29;101036.28;5025222;28;20413;-31
2022/11/06 05:06:41;;;;;;;;;;;;;;;5.25;70.60;101031.06;5030460;28;19916;-31
2022/11/06 05:09:06;;;;;;;;;;;;;;;5.24;70.58;101034.53;5031302;28;19979;-32
2022/11/06 05:11:31;;;;;;;;;;;;;;;5.21;70.00;101039.69;5030253;28;19913;-32
2022/11/06 05:13:56;;;;;;;;;;;;;;;5.20;70.60;101033.59;5025313;28;19908;-33
2022/11/06 05:16:22;;;;;;;;;;;;;;;5.18;70.46;101035.31;5029411;28;19913;-32
2022/11/06 05:18:47;;;;;;;;;;;;;;;5.18;70.80;101029.19;5027349;28;19917;-31
2022/11/06 05:23:56;;;;;;;;;;;;;;;5.14;70.90;101020.41;5025833;28;20333;-32
2022/11/06 05:26:21;;;;;;;6.20;3.47;;;;;;;5.11;70.25;101025.56;5029043;28;19925;-31
2022/11/06 05:28:46;;;;;;;;;;;;;;;5.10;70.77;101027.28;5028125;28;20041;-31
2022/11/06 05:31:11;;;;;;;;;;;;;;;5.09;70.29;101030.78;5029551;28;19913;-31
2022/11/06 05:33:37;;;;;;;;;;;;;;;5.06;70.73;101028.09;5026049;28;20015;-31
2022/11/06 05:36:05;;;;;;;;;;;;;;;5.05;70.49;101028.06;5028583;28;19965;-31
2022/11/06 05:38:31;;;;;;;;;;;;;;;5.03;70.94;101019.31;5027287;28;19913;-31
2022/11/06 05:40:56;;;;;;;;;;;;;;;5.01;70.42;101014.91;5028870;28;19996;-31
2022/11/06 05:43:21;;;;;;;;;;;;;;;5.00;70.25;101005.31;5028421;28;20019;-31
2022/11/06 05:45:46;;;;;;;;;;;;;;;5.00;70.51;101007.03;5023934;28;19916;-32
2022/11/06 05:48:12;;;;;;;;;;;;;;;4.98;70.48;101009.66;5029607;28;19970;-31
2022/11/06 05:50:37;;;;;;;;;;;;;;;4.96;71.02;101008.72;5030468;28;19921;-31
2022/11/06 05:53:02;;;;;;;;;;;;;;;4.96;70.44;101013.06;5031153;28;19917;-31
2022/11/06 05:55:27;;;;;;;;;;;;;;;4.92;71.08;101017.38;5032198;28;20123;-33
2022/11/06 05:57:53;;;;;;;;;;;;;;;4.93;70.58;101019.13;5028758;28;19917;-31
2022/11/06 06:00:18;;;;;;;;;;;;;;;4.91;70.98;101012.09;5022464;28;20012;-34
2022/11/06 06:02:43;;;;;;;;;;;;;;;4.89;70.62;101017.31;5031759;28;20263;-32
2022/11/06 06:05:09;;;;;;;;;;;;;;;4.87;70.74;101025.09;5031463;28;19952;-32
2022/11/06 06:07:34;;;;;;;;;;;;;;;4.86;71.16;101022.47;5022083;28;19917;-32
2022/11/06 06:09:59;;;;;;;;;;;;;;;4.84;70.76;101008.50;5028303;28;19917;-31
2022/11/06 06:12:25;;;;;;;;;;;;;;;4.84;71.45;101024.19;5027486;28;20334;-32
2022/11/06 06:14:53;;;;;;;;;;;;;;;4.82;70.84;101026.75;5025974;28;19913;-32
2022/11/06 06:17:19;;;;;;;;;;;;;;;4.81;71.39;101021.50;5025362;28;19913;-32
2022/11/06 06:19:44;;;;;;;;;;;;;;;4.81;71.20;101029.34;5030167;28;20016;-32
2022/11/06 06:22:10;;;;;;;;;;;;;;;4.81;70.82;101024.13;5029719;28;19913;-32
2022/11/06 06:24:35;;;;;;;;;;;;;;;4.80;71.72;101032.81;5030843;28;20369;-31
2022/11/06 06:27:01;;;;;;;;;;;;;;;4.81;71.50;101037.19;5029861;28;20227;-32
2022/11/06 06:29:26;;;;;;;;;;;;;;;4.80;71.56;101038.91;5028548;28;19917;-32
2022/11/06 06:31:51;;;;;;;;;;;;;;;4.80;71.55;101038.91;5025218;28;19913;-32
2022/11/06 06:34:16;;;;;;;;;;;;;;;4.81;71.50;101043.31;5027350;28;19975;-32
2022/11/06 06:36:42;;;;;;;;;;;;;;;4.81;71.18;101037.19;5025487;28;20248;-32
2022/11/06 06:39:07;;;;;;;;;;;;;;;4.81;71.23;101039.78;5026642;28;20160;-32
2022/11/06 06:41:32;;;;;;;;;;;;;;;4.79;71.27;101046.72;5026863;28;19920;-32
2022/11/06 06:43:58;;;;;;;;;;;;;;;4.78;70.93;101045.84;5030023;28;19913;-32
2022/11/06 06:46:23;;;;;;;;;;;;;;;4.79;71.53;101044.09;5030488;28;19955;-32
2022/11/06 06:48:48;;;;;;;;;;;;;;;4.79;71.55;101050.22;5031210;28;20352;-32
2022/11/06 06:51:14;;;;;;;;;;;;;;;4.79;71.61;101051.94;5033873;28;19958;-32
2022/11/06 06:53:39;;;;;;;;;;;;;;;4.78;71.67;101051.06;5028743;28;20397;-32
2022/11/06 06:56:04;;;;;;;;;;;;;;;4.79;71.91;101055.44;5026677;28;19916;-32
2022/11/06 06:58:30;;;;;;;;;;;;;;;4.78;71.46;101058.03;5034344;28;19942;-31
2022/11/06 07:01:02;;;;;;;;;;;;;;;4.79;72.17;101057.16;5036984;28;19917;-31
2022/11/06 07:03:27;;;;;;;;;;;;;;;4.79;72.09;101047.59;5032353;28;19921;-32
2022/11/06 07:05:53;;;;;;;;;;;;;;;4.79;72.14;101046.72;5027862;28;19920;-32
2022/11/06 07:08:18;;;;;;;;;;;;;;;4.80;72.17;101048.50;5030918;28;19923;-32
2022/11/06 07:10:43;;;;;;;;;;;;;;;4.78;71.94;101051.06;5031682;28;20012;-31
2022/11/06 07:13:09;;;;;;;;;;;;;;;4.79;71.88;101044.09;5033051;28;19928;-31
2022/11/06 07:15:34;;;;;;;;;;;;;;;4.80;72.05;101053.72;5028353;28;19921;-31
2022/11/06 07:18:03;;;;;;;;;;;;;;;4.80;72.51;101048.50;5029913;28;20019;-32
2022/11/06 07:20:28;;;;;;;;;;;;;;;4.82;72.94;101052.00;5046432;28;19928;-32
2022/11/06 07:22:53;;;;;;;;;;;;;;;4.82;72.74;101050.28;5026332;28;19921;-31
2022/11/06 07:25:19;;;;;;;;;;;;;;;4.83;72.88;101043.31;5025642;28;19921;-30
2022/11/06 07:27:44;;;;;;;;;;;;;;;4.85;72.35;101046.84;5028935;28;19929;-32
2022/11/06 07:30:10;;;;;;;;;;;;;;;4.88;72.31;101057.38;5024141;28;19928;-30
2022/11/06 07:32:35;;;;;;;;;;;;;;;4.91;73.04;101056.53;5030013;28;19960;-30
2022/11/06 07:35:02;;;;;;;;;;;;;;;4.94;73.03;101056.63;5025862;28;19974;-32
2022/11/06 07:37:27;;;;;;;;;;;;;;;4.95;73.48;101048.81;5027212;28;19928;-30
2022/11/06 07:39:52;;;;;;;;;;;;;;;4.97;73.12;101047.09;5025489;28;19913;-31
2022/11/06 07:42:18;;;;;;;;;;;;;;;5.01;73.31;101041.06;5025253;28;19920;-30
2022/11/06 07:44:43;;;;;;;;;;;;;;;5.04;73.91;101049.84;5027106;28;19913;-30
2022/11/06 07:47:08;;;;;;;;;;;;;;;5.07;73.31;101042.06;5029605;28;20393;-32
2022/11/06 07:49:33;;;;;;;;;;;;;;;5.11;73.32;101039.50;5027701;28;19964;-30
2022/11/06 07:51:59;;;;;;;;;;;;;;;5.17;73.25;101033.50;5025414;28;20060;-32
2022/11/06 07:54:27;;;;;;;;;;;;;;;5.22;74.25;101031.00;5030722;28;20400;-30
2022/11/06 07:56:52;;;;;;;;;;;;;;;5.29;73.89;101037.22;5040613;28;19917;-31
2022/11/06 07:59:17;;;;;;;;;;;;;;;5.34;73.95;101025.13;5025709;28;19912;-31
2022/11/06 08:01:45;;;;;;;;;;;;;;;5.39;74.37;101023.47;5023001;28;19917;-30
2022/11/06 08:04:10;;;;;;;;;;;;;;;5.45;74.18;101023.59;5028514;28;19916;-30
2022/11/06 08:06:35;;;;;;;;;;;;;;;5.51;73.97;101018.44;5024720;28;19913;-32
2022/11/06 08:09:04;;;;;;;;;;;;;;;5.57;74.07;101028.13;5022353;28;19925;-30
2022/11/06 08:11:29;;;;;;;;;;;;;;;5.63;73.94;101028.25;5030583;28;19948;-30
2022/11/06 08:13:56;;;;;;;;;;;;;;;5.69;73.90;101032.72;5046471;28;19956;-30
2022/11/06 08:16:21;;;;;;;;;;;;;;;5.76;74.33;101029.34;5022029;28;19919;-31
2022/11/06 08:18:49;;;;;;;;;;;;;;;5.82;74.31;101023.31;5033330;28;19913;-32
2022/11/06 08:21:14;;;;;;;;;;;;;;;5.89;74.06;101029.53;5025114;28;19935;-32
2022/11/06 08:23:39;;;;;;;;;;;;;;;5.95;73.80;101021.78;5029745;28;19917;-32
2022/11/06 08:26:05;;;;;;;;;;;;;;;6.00;73.55;101014.88;5027802;28;19971;-31
2022/11/06 08:28:31;;;;;;;;;;;;;;;6.08;73.88;101008.91;5028242;28;20409;-31
2022/11/06 08:30:56;;;;;;;;;;;;;;;6.15;73.76;101008.13;5031584;28;20182;-31
2022/11/06 08:33:21;;;;;;;;;;;;;;;6.20;73.74;101009.06;5028140;28;19917;-30
2022/11/06 08:35:47;;;;;;;;;;;;;;;6.24;74.31;101010.88;5023314;28;19963;-30
2022/11/06 08:38:12;;;;;;;;;;;;;;;6.32;74.24;101012.72;5027710;28;20279;-31
2022/11/06 08:40:39;;;;;;;;;;;;;;;6.36;73.93;101007.56;5029028;28;20004;-31
2022/11/06 08:43:06;;;;;;;;;;;;;;;6.41;74.27;101003.25;5032312;28;19932;-30
2022/11/06 08:45:32;;;;;;;;;;;;;;;6.45;73.83;100996.31;5029591;28;20279;-30
2022/11/06 08:48:01;;;;;;;;;;;;;;;6.50;74.16;100992.00;5032195;28;19917;-30
2022/11/06 08:50:27;;;;;;;;;;;;;;;6.55;73.89;100984.22;5030050;28;19951;-30
2022/11/06 08:52:56;;;;;;;;;;;;;;;6.59;73.74;100980.78;5023353;28;19956;-30
2022/11/06 08:55:22;;;;;;;;;;;;;;;6.63;74.30;100981.69;5024753;28;19927;-31
2022/11/06 08:57:49;;;;;;;;;;;;;;;6.66;74.60;100972.13;5033417;28;19913;-31
2022/11/06 09:00:15;;;;;;;;;;;;;;;6.71;74.63;100969.56;5033016;28;19922;-30
2022/11/06 09:02:48;;;;;;;;;;;;;;;6.76;74.73;100972.22;5029020;28;19913;-32
2022/11/06 09:05:14;;;;;;;;;;;;;;;6.82;74.65;100974.03;5025350;28;19913;-31
2022/11/06 09:07:39;;;;;;;;;;;;;;;6.86;74.87;100970.59;5025819;28;19917;-31
2022/11/06 09:10:05;;;;;;;;;;;;;;;6.91;74.61;100972.38;5029068;28;19913;-31
2022/11/06 09:12:30;;;;;;;;;;;;;;;6.96;74.50;100969.84;5026708;28;19959;-33
2022/11/06 09:14:56;;;;;;;;;;;;;;;7.01;75.12;100973.38;5029911;28;20265;-31
2022/11/06 09:17:23;;;;;;;;;;;;;;;7.06;74.88;100965.56;5024201;28;19924;-31
2022/11/06 09:19:51;;;;;;;;;;;;;;;7.14;74.91;100969.13;5027248;28;19931;-31
2022/11/06 09:22:17;;;;;;;;;;;;;;;7.21;75.53;100975.34;5025612;28;19920;-31
2022/11/06 09:24:42;;;;;;;;;;;;;;;7.26;75.88;100976.25;5020352;28;19913;-31
2022/11/06 09:27:07;;;;;;;;;;;;;;;7.32;76.33;100971.06;5027572;28;19909;-31
2022/11/06 09:29:33;;;;;;;;;;;;;;;7.41;76.21;100972.88;5024369;28;19965;-31
2022/11/06 09:31:59;;;;;;;;;;;;;;;7.47;75.78;100968.56;5026331;28;19920;-31
2022/11/06 09:34:25;;;;;;;;;;;;;;;7.53;76.10;100966.88;5037886;28;19909;-31
2022/11/06 09:36:50;;;;;;;;;;;;;;;7.59;75.90;100960.78;5027399;28;19920;-32
2022/11/06 09:39:16;;;;;;;;;;;;;;;7.72;77.71;100958.25;5042122;28;19924;-32
2022/11/06 09:41:44;;;;;;;;;;;;;;;7.97;78.46;100954.03;5027500;28;19923;-31
2022/11/06 09:44:28;;;;;;;;;;;;;;;8.01;77.71;100953.22;5031045;28;20277;-31
2022/11/06 09:46:55;;;;;;;;;;;;;;;8.18;77.77;100940.16;5021195;28;19916;-30
2022/11/06 09:49:37;;;;;;;;;;;;;;;8.35;78.21;100944.63;5025390;28;20441;-30
2022/11/06 09:52:02;;;;;;;;;;;;;;;8.50;78.30;100943.78;5025872;28;19917;-30
2022/11/06 09:54:30;;;;;;;;;;;;;;;8.62;77.00;100939.47;5028131;28;19916;-32
2022/11/06 09:56:59;;;;;;;;;;;;;;;8.69;77.14;100930.75;5029457;28;20373;-32
2022/11/06 09:59:24;;;;;;;;;;;;;;;8.83;77.07;100920.25;5028388;28;20354;-32
2022/11/06 10:01:54;;;;;;;;;;;;;;;8.84;76.43;100922.88;5029481;28;19909;-31
2022/11/06 10:04:20;;;;;;;;;;;;;;;8.85;77.06;100932.56;5028294;28;20374;-31
2022/11/06 10:06:45;;;;;;;;;;;;;;;8.82;75.96;100932.53;5021150;28;19921;-34
2022/11/06 10:09:11;;;;;;;;;;;;;;;8.82;75.43;100924.66;5022750;28;19921;-34
2022/11/06 10:11:48;;;;;;;;;;;;;;;8.85;75.29;100922.03;5023035;28;19944;-34
2022/11/06 10:14:19;;;;;;;;;;;;;;;8.88;75.32;100926.41;5027237;28;19917;-34
2022/11/06 10:17:03;;;;;;;;;;;;;;;8.93;75.44;100929.03;5025191;28;20324;-34
2022/11/06 10:19:35;;;;;;;;;;;;;;;8.97;75.27;100922.94;5036036;28;20362;-33
2022/11/06 10:22:03;;;;;;;;;;;;;;;9.00;75.37;100920.28;5025859;28;19913;-34
2022/11/06 10:24:28;;;;;;;;;;;;;;;9.04;75.19;100919.41;5045768;28;19932;-32
2022/11/06 10:26:54;;;;;;;;;;;;;;;9.08;75.39;100920.31;5025933;28;19935;-32
2022/11/06 10:29:24;;;;;;;;;;;;;;;9.12;75.13;100911.53;5024183;28;20046;-31
2022/11/06 10:31:59;;;;;;;;;;;;;;;9.17;75.48;100911.53;5026042;28;19920;-32
2022/11/06 10:34:44;;;;;;;;;;;;;;;9.19;75.70;100905.41;5029619;28;19927;-31
2022/11/06 10:37:11;;;;;;;;;;;;;;;9.21;75.91;100898.38;5029889;28;19917;-31
2022/11/06 10:39:37;;;;;;;;;;;;;;;9.27;74.98;100899.25;5025433;28;21163;-31
2022/11/06 10:42:04;;;;;;;;;;;;;;;9.32;75.19;100895.75;5028511;28;20002;-31
2022/11/06 10:44:36;;;;;;;;;;;;;;;9.37;75.32;100891.34;5028459;28;20393;-31
2022/11/06 10:47:27;;;;;;;;;;;;;;;9.41;74.97;100881.72;5031147;28;20122;-32
2022/11/06 10:49:54;;;;;;;;;;;;;;;9.47;75.08;100875.56;5026843;28;20389;-31
2022/11/06 10:52:25;;;;;;;;;;;;;;;9.50;75.08;100867.63;5030732;28;19913;-32
2022/11/06 10:55:03;;;;;;;;;;;;;;;9.55;75.39;100876.44;5030743;28;19947;-34
2022/11/06 10:57:43;;;;;;;;;;;;;;;9.59;75.46;100872.91;5031613;28;20339;-32
2022/11/06 11:00:12;;;;;;;;;;;;;;;9.65;75.42;100868.50;5028249;28;20015;-34
2022/11/06 11:02:39;;;;;;;;;;;;;;;9.70;75.02;100859.72;5027770;28;20497;-34
2022/11/06 11:05:12;;;;;;;;;;;;;;;9.75;74.99;100864.97;5029034;28;20275;-33
2022/11/06 11:07:38;;;;;;;;;;;;;;;9.79;74.89;100861.44;5021851;28;20358;-31
2022/11/06 11:10:22;;;;;;;;;;;;;;;9.86;75.12;100846.50;5030347;28;19982;-32
2022/11/06 11:12:48;;;;;;;;;;;;;;;9.90;74.99;100835.06;5030044;28;19920;-31
2022/11/06 11:17:42;;;;;;;;;;;;;;;9.99;74.96;100826.25;5043770;28;20407;-34
2022/11/06 11:20:28;;;;;;;;;;;;;;;10.05;74.90;100830.63;5048803;28;19916;-34
2022/11/06 11:23:08;;;;;;;;;;;;;;;10.08;74.85;100822.69;5044733;28;20377;-34
2022/11/06 11:25:34;;;;;;;;;;;;;;;10.13;74.75;100821.78;5047130;28;19917;-34
2022/11/06 11:28:00;;;;;;;;;;;;;;;10.18;74.87;100812.97;5022484;28;19974;-34
2022/11/06 11:30:28;;;;;;;;;;;;;;;10.22;74.57;100812.97;5026928;28;19920;-34
2022/11/06 11:32:53;;;;;;;;;;;;;;;10.27;74.72;100821.72;5024472;28;19917;-34
2022/11/06 11:35:19;;;;;;;;;;;;;;;10.31;74.44;100814.69;5029111;28;19923;-34
2022/11/06 11:37:45;;;;;;;;;;;;;;;10.35;74.33;100810.25;5035999;28;19974;-34
2022/11/06 11:40:21;;;;;;;;;;;;;;;10.40;74.51;100809.34;5036141;28;20324;-34
2022/11/06 11:42:46;;;;;;;;;;;;;;;10.43;74.12;100803.16;5034340;28;22214;-35
2022/11/06 11:45:13;;;;;;;;;;;;;;;10.49;74.24;100797.91;5027268;28;20538;-34
2022/11/06 11:47:39;;;;;;;;;;;;;;;10.52;73.99;100812.81;5041617;28;19920;-33
2022/11/06 11:50:37;;;;;;;;;;;;;;;10.54;74.04;100800.50;5033819;28;19960;-34
2022/11/06 11:53:02;;;;;;;;;;;;;;;10.60;73.74;100800.44;5011377;28;19917;-34
2022/11/06 11:55:28;;;;;;;;;;;;;;;10.63;73.53;100800.44;5036743;28;20324;-34
2022/11/06 11:57:54;;;;;;;;;;;;;;;10.68;73.47;100808.31;5034288;28;20003;-34
2022/11/06 12:00:20;;;;;;;;;;;;;;;10.73;73.23;100805.63;5051659;28;19920;-34
2022/11/06 12:03:06;;;;;;;;;;;;;;;10.75;73.17;100793.31;5029605;28;19967;-34
2022/11/06 12:05:35;;;;;;;;;;;;;;;10.79;73.51;100797.69;5026540;28;19912;-34
2022/11/06 12:08:01;;;;;;;;;;;;;;;10.82;73.13;100788.84;5013757;28;19956;-33
2022/11/06 12:10:33;;;;;;;;;;;;;;;10.85;72.76;100787.09;5031228;28;19955;-34
2022/11/06 12:12:59;;;;;;;;;;;;;;;10.90;73.26;100782.63;5029191;28;20364;-34
2022/11/06 12:15:26;;;;;;;;;;;;;;;10.93;72.95;100779.09;5028615;28;19974;-34
2022/11/06 12:18:02;;;;;;;;;;;;;;;10.97;72.95;100777.31;5027192;28;19926;-34
2022/11/06 12:21:07;;;;;;;;;;;;;;;11.01;72.87;100757.91;5053312;28;20424;-34
2022/11/06 12:23:39;;;;;;;;;;;;;;;11.06;72.97;100757.84;5010396;28;19921;-34
2022/11/06 12:26:10;;;;;;;;;;;;;;;11.08;72.57;100748.16;5005591;28;19914;-34
2022/11/06 12:28:36;;;;;;;;;;;;;;;11.11;72.42;100738.44;5008932;28;19913;-34
2022/11/06 12:31:06;;;;;;;;;;;;;;;11.15;72.00;100734.00;5031723;28;20362;-34
2022/11/06 12:33:32;;;;;;;;;;;;;;;11.19;72.19;100722.53;5031188;28;19924;-34
2022/11/06 12:36:01;;;;;;;;;;;;;;;11.23;71.64;100731.28;5033700;28;19912;-34
2022/11/06 12:38:27;;;;;;;;;;;;;;;11.27;71.70;100725.97;5036160;28;19917;-34
2022/11/06 12:40:54;;;;;;;;;;;;;;;11.29;71.10;100721.53;5036100;28;19913;-34
2022/11/06 12:43:20;;;;;;;;;;;;;;;11.34;71.26;100718.81;5033338;28;19959;-34
2022/11/06 12:45:48;;;;;;;;;;;;;;;11.39;71.71;100718.78;5032468;28;19920;-34
2022/11/06 12:48:32;;;;;;;;;;;;;;;11.40;70.95;100710.84;5032753;28;19935;-34
2022/11/06 12:51:16;;;;;;;;;;;;;;;11.45;71.15;100709.91;5028623;28;19923;-34
2022/11/06 12:53:59;;;;;;;;;;;;;;;11.51;70.79;100701.94;5034549;28;19928;-34
2022/11/06 12:56:27;;;;;;;;;;;;;;;11.54;70.98;100683.41;5026618;28;19914;-34
2022/11/06 12:59:22;;;;;;;;;;;;;;;11.58;70.37;100682.47;5030879;28;19924;-34
2022/11/06 13:01:47;;;;;;;;;;;;;;;11.62;70.67;100664.78;5019564;28;20004;-34
2022/11/06 13:04:48;;;;;;;;;;;;;;;11.66;70.15;100667.38;5027047;28;20000;-34